sensor_id;sensor_type;location;lat;lon;timestamp;pressure;altitude;pressure_sealevel;temperature;humidity
80124;BME280;69433;48.642;9.142;2023-04-15T18:28:52;96686.22;;;23.65;34.25
80124;BME280;69433;48.642;9.142;2023-04-15T18:31:17;96682.38;;;23.66;34.07
80124;BME280;69433;48.642;9.142;2023-04-15T18:36:05;96694.78;;;24.28;32.86
80124;BME280;69433;48.642;9.142;2023-04-15T18:38:31;96696.59;;;23.83;34.00
80124;BME280;69433;48.642;9.142;2023-04-15T18:40:57;96707.63;;;23.85;33.87
80124;BME280;69433;48.642;9.142;2023-04-15T18:43:22;96705.81;;;23.82;33.74
80124;BME280;69433;48.642;9.142;2023-04-15T18:45:50;96709.66;;;23.81;34.25
80124;BME280;69433;48.642;9.142;2023-04-15T18:48:16;96707.78;;;23.61;34.49
80124;BME280;69433;48.642;9.142;2023-04-15T18:50:42;96719.66;;;23.80;34.34
80124;BME280;69433;48.642;9.142;2023-04-15T18:53:09;96716.81;;;24.03;34.59
80124;BME280;69433;48.642;9.142;2023-04-15T18:55:38;96717.78;;;23.93;34.44
80124;BME280;69433;48.642;9.142;2023-04-15T18:58:06;96723.94;;;23.94;34.80
80124;BME280;69433;48.642;9.142;2023-04-15T19:04:30;96736.91;;;25.22;32.86
80124;BME280;69433;48.642;9.142;2023-04-15T19:06:55;96734.28;;;25.34;32.83
80124;BME280;69433;48.642;9.142;2023-04-15T19:09:22;96736.13;;;25.50;32.24
80124;BME280;69433;48.642;9.142;2023-04-15T19:11:47;96741.13;;;25.64;32.29
80124;BME280;69433;48.642;9.142;2023-04-15T19:14:12;96743.94;;;25.73;32.14
80124;BME280;69433;48.642;9.142;2023-04-15T19:16:38;96738.00;;;25.78;31.72
80124;BME280;69433;48.642;9.142;2023-04-15T19:19:03;96748.25;;;25.83;31.79
80124;BME280;69433;48.642;9.142;2023-04-15T19:21:32;96750.81;;;25.87;32.11
80124;BME280;69433;48.642;9.142;2023-04-15T19:23:59;96756.88;;;25.91;31.66
80124;BME280;69433;48.642;9.142;2023-04-15T19:26:24;96761.84;;;25.93;31.93
80124;BME280;69433;48.642;9.142;2023-04-15T19:28:50;96760.66;;;25.94;31.72
80124;BME280;69433;48.642;9.142;2023-04-15T19:31:20;96766.66;;;25.98;31.45
80124;BME280;69433;48.642;9.142;2023-04-15T19:33:46;96766.25;;;25.99;31.49
80124;BME280;69433;48.642;9.142;2023-04-15T19:36:14;96770.56;;;25.97;31.90
80124;BME280;69433;48.642;9.142;2023-04-15T19:38:39;96770.25;;;25.95;31.50
80124;BME280;69433;48.642;9.142;2023-04-15T19:41:05;96772.06;;;25.98;31.50
80124;BME280;69433;48.642;9.142;2023-04-15T19:43:37;96772.94;;;25.95;31.50
80124;BME280;69433;48.642;9.142;2023-04-15T19:46:02;96775.31;;;25.93;31.63
80124;BME280;69433;48.642;9.142;2023-04-15T19:48:28;96774.13;;;25.94;31.98
80124;BME280;69433;48.642;9.142;2023-04-15T19:50:53;96770.25;;;25.95;31.90
80124;BME280;69433;48.642;9.142;2023-04-15T19:53:18;96775.31;;;25.93;31.56
80124;BME280;69433;48.642;9.142;2023-04-15T19:55:43;96772.19;;;25.94;32.04
80124;BME280;69433;48.642;9.142;2023-04-15T19:58:09;96780.13;;;25.98;31.90
80124;BME280;69433;48.642;9.142;2023-04-15T20:00:36;96782.31;;;25.90;31.98
80124;BME280;69433;48.642;9.142;2023-04-15T20:03:02;96780.78;;;25.89;31.85
80124;BME280;69433;48.642;9.142;2023-04-15T20:05:27;96775.72;;;25.66;32.00
80124;BME280;69433;48.642;9.142;2023-04-15T20:07:52;96779.06;;;25.41;32.44
80124;BME280;69433;48.642;9.142;2023-04-15T20:11:48;96780.78;;;22.35;32.35
80124;BME280;69433;48.642;9.142;2023-04-15T20:14:13;96778.94;;;22.32;32.83
80124;BME280;69433;48.642;9.142;2023-04-15T20:16:40;96776.66;;;22.30;32.84
80124;BME280;69433;48.642;9.142;2023-04-15T20:19:06;96778.28;;;22.28;32.73
80124;BME280;69433;48.642;9.142;2023-04-15T20:21:35;96776.78;;;22.27;32.61
80124;BME280;69433;48.642;9.142;2023-04-15T20:24:00;96780.63;;;22.26;32.98
80124;BME280;69433;48.642;9.142;2023-04-15T20:26:26;96774.50;;;22.25;33.15
80124;BME280;69433;48.642;9.142;2023-04-15T20:28:52;96776.78;;;22.27;33.07
80124;BME280;69433;48.642;9.142;2023-04-15T20:31:19;96777.59;;;22.24;33.02
